Triton — WDG5828 — position and weather

sailwx.info

Track history (hours):
 
Tides and Currents Weather Stations Pressure Air Temp Water Temp Dewpoint Dewpoint Depression Visibility Wind Speed Wind Dir Waves Ship Positions

Triton

Owner: Ciaramitaro, Pete R, SAN PEDRO, CA. More information available from US FCC via Universal Licensing System and Coast Guard Vessel Documentation Center.

Last reported at 2018-Jan-08 06:24 UTC. Time now 2018-Jan-23 00:08 UTC.
Position N 33°24' W 118°17'.
Warning: this ship's position is 14 days out of date.

Length 20 m.

Type: Fishing. MMSI: 367550710.

Date/timePositionNaut miles runAvg speedWind from/ knotsBaromVisibWave heightAir tempDewpointWater temp
2018-Jan-08 06:24N 33°24' W 118°17'  
2018-Jan-03 13:44N 33°33' W 118°16'2 8.2
2018-Jan-03 13:27N 33°31' W 118°16'14 1.2
2018-Jan-03 01:51N 33°18' W 118°22'3 2.2
2018-Jan-03 00:21N 33°17' W 118°25'3 7.6
2018-Jan-02 23:59N 33°15' W 118°27'7 7.8
2018-Jan-02 23:09N 33°10' W 118°32'2 8.0
2018-Jan-02 22:52N 33°08' W 118°33'3 8.0
2018-Jan-02 22:29N 33°05' W 118°35'9 0.5
2018-Jan-02 04:15N 32°57' W 118°30'3 7.3
2018-Jan-02 03:48N 33°00' W 118°32'2 7.0
2018-Jan-02 03:30N 33°02' W 118°34'1 2.8
2018-Jan-02 03:00N 33°02' W 118°35'  
2017-Dec-29 15:18N 33°39' W 118°20'3 7.5
2017-Dec-29 14:55N 33°38' W 118°23'5 7.2
2017-Dec-29 14:15N 33°35' W 118°27'2 7.1
2017-Dec-29 14:00N 33°33' W 118°29'4 7.1
2017-Dec-29 13:29N 33°31' W 118°33'4 7.5
2017-Dec-29 13:00N 33°29' W 118°36'  
Track history (hours):
 
Tides and Currents Weather Stations Pressure Air Temp Water Temp Dewpoint Dewpoint Depression Visibility Wind Speed Wind Dir Waves Ship Positions

Triton

Owner: Ciaramitaro, Pete R, SAN PEDRO, CA. More information available from US FCC via Universal Licensing System and Coast Guard Vessel Documentation Center.

Last reported at 2018-Jan-08 06:24 UTC. Time now 2018-Jan-23 00:08 UTC.
Position N 33°24' W 118°17'.
Warning: this ship's position is 14 days out of date.

Length 20 m.

Type: Fishing. MMSI: 367550710.

Date/timePositionNaut miles runAvg speedWind from/ knotsBaromVisibWave heightAir tempDewpointWater temp
2018-Jan-08 06:24N 33°24' W 118°17'  
2018-Jan-03 13:44N 33°33' W 118°16'2 8.2
2018-Jan-03 13:27N 33°31' W 118°16'14 1.2
2018-Jan-03 01:51N 33°18' W 118°22'3 2.2
2018-Jan-03 00:21N 33°17' W 118°25'3 7.6
2018-Jan-02 23:59N 33°15' W 118°27'7 7.8
2018-Jan-02 23:09N 33°10' W 118°32'2 8.0
2018-Jan-02 22:52N 33°08' W 118°33'3 8.0
2018-Jan-02 22:29N 33°05' W 118°35'9 0.5
2018-Jan-02 04:15N 32°57' W 118°30'3 7.3
2018-Jan-02 03:48N 33°00' W 118°32'2 7.0
2018-Jan-02 03:30N 33°02' W 118°34'1 2.8
2018-Jan-02 03:00N 33°02' W 118°35'  
2017-Dec-29 15:18N 33°39' W 118°20'3 7.5
2017-Dec-29 14:55N 33°38' W 118°23'5 7.2
2017-Dec-29 14:15N 33°35' W 118°27'2 7.1
2017-Dec-29 14:00N 33°33' W 118°29'4 7.1
2017-Dec-29 13:29N 33°31' W 118°33'4 7.5
2017-Dec-29 13:00N 33°29' W 118°36'  

Dump ship's entire track history